| time (UTC) | temp C | wind direction | speed KPH | gust KPH | rain 1hr cm | rain 24hr cm | rain mn cm | humidity % | barometer mb |
| 20260510055116 | 12 | 244 | 1.6 | 1.6 | 0.00 | 0.00 | 0.00 | 95 | 1009.7 |
| 20260510054612 | 12 | 205 | 4.8 | 4.8 | 0.00 | 0.00 | 0.00 | 95 | 1009.7 |
| 20260510054107 | 12 | 224 | 8.0 | 11.3 | 0.00 | 0.00 | 0.00 | 95 | 1009.6 |
| 20260510053606 | 12 | 233 | 8.0 | 11.3 | 0.00 | 0.00 | 0.00 | 95 | 1009.7 |
| 20260510053104 | 12 | 227 | 4.8 | 6.4 | 0.00 | 0.00 | 0.00 | 96 | 1009.6 |
| 20260510052559 | 12 | 223 | 3.2 | 6.4 | 0.00 | 0.00 | 0.00 | 96 | 1009.5 |
| 20260510052056 | 12 | 232 | 1.6 | 4.8 | 0.00 | 0.00 | 0.00 | 96 | 1009.3 |
| 20260510051551 | 11 | 202 | 4.8 | 4.8 | 0.00 | 0.00 | 0.00 | 95 | 1009.4 |
| 20260510051049 | 12 | 203 | 1.6 | 1.6 | 0.00 | 0.00 | 0.00 | 95 | 1009.5 |
| 20260510050546 | 12 | 202 | 3.2 | 4.8 | 0.00 | 0.00 | 0.00 | 95 | 1009.3 |
| 20260510050043 | 12 | 210 | 1.6 | 4.8 | 0.00 | 0.00 | 0.00 | 95 | 1009.4 |
| 20260510045540 | 12 | 156 | 3.2 | 4.8 | 0.00 | 0.00 | 0.00 | 95 | 1009.4 |
| 20260510045036 | 12 | 132 | 3.2 | 6.4 | 0.00 | 0.00 | 0.00 | 96 | 1009.3 |
| 20260510044533 | 12 | 184 | 1.6 | 6.4 | 0.00 | 0.00 | 0.00 | 96 | 1009.4 |
| 20260510044031 | 12 | 192 | 1.6 | 6.4 | 0.00 | 0.00 | 0.00 | 96 | 1009.4 |
| 20260510043526 | 12 | 206 | 3.2 | 1.6 | 0.00 | 0.00 | 0.00 | 96 | 1009.5 |
| 20260510043021 | 12 | 184 | 3.2 | 1.6 | 0.00 | 0.00 | 0.00 | 95 | 1009.4 |
| 20260510042515 | 12 | 125 | 1.6 | 1.6 | 0.00 | 0.00 | 0.00 | 95 | 1009.7 |
| 20260510042010 | 12 | 120 | 1.6 | 4.8 | 0.00 | 0.00 | 0.00 | 95 | 1009.6 |
| 20260510041509 | 12 | 119 | 4.8 | 4.8 | 0.00 | 0.00 | 0.00 | 95 | 1009.6 |
| 20260510041006 | 12 | 135 | 4.8 | 4.8 | 0.00 | 0.00 | 0.00 | 95 | 1009.8 |
| 20260510040502 | 12 | 77 | 3.2 | 4.8 | 0.00 | 0.00 | 0.00 | 95 | 1010.1 |
| 20260510035957 | 12 | 8 | 1.6 | 1.6 | 0.00 | 2.62 | 2.62 | 95 | 1009.6 |
| 20260510035455 | 12 | 5 | 1.6 | 4.8 | 0.00 | 2.62 | 2.62 | 95 | 1009.7 |
| 20260510034954 | 12 | 68 | 4.8 | 4.8 | 0.18 | 2.62 | 2.62 | 95 | 1009.9 |
| 20260510034453 | 12 | 355 | 8.0 | 8.0 | 0.18 | 2.62 | 2.62 | 94 | 1009.8 |
| 20260510033949 | 12 | 261 | 0.0 | 6.4 | 0.00 | 2.59 | 2.59 | 94 | 1009.4 |
| 20260510033445 | 12 | 186 | 4.8 | 6.4 | 0.00 | 2.59 | 2.59 | 93 | 1009.3 |
| 20260510032942 | 12 | 188 | 0.0 | 4.8 | 0.00 | 2.59 | 2.59 | 94 | 1009.5 |
| 20260510032439 | 12 | 191 | 3.2 | 6.4 | 0.00 | 2.59 | 2.59 | 94 | 1009.7 |
| 20260510031939 | 12 | 220 | 3.2 | 6.4 | 0.00 | 2.59 | 2.59 | 94 | 1009.8 |
| 20260510031435 | 12 | 171 | 3.2 | 4.8 | 0.00 | 2.59 | 2.59 | 94 | 1009.5 |
| 20260510030931 | 12 | 226 | 1.6 | 1.6 | 0.00 | 2.59 | 2.59 | 94 | 1009.6 |
| 20260510030426 | 12 | 227 | 0.0 | 1.6 | 0.00 | 2.59 | 2.59 | 94 | 1009.5 |
| 20260510025924 | 12 | 256 | 3.2 | 4.8 | 0.43 | 2.59 | 2.59 | 94 | 1009.5 |
| 20260510025421 | 12 | 20 | 6.4 | 11.3 | 0.43 | 2.59 | 2.59 | 95 | 1009.5 |
| 20260510024919 | 12 | 7 | 0.0 | 4.8 | 0.00 | 2.51 | 2.51 | 95 | 1009.9 |
| 20260510024415 | 12 | 247 | 0.0 | 1.6 | 0.00 | 2.51 | 2.51 | 95 | 1009.2 |
| 20260510023911 | 12 | 245 | 0.0 | 0.0 | 0.00 | 2.51 | 2.51 | 95 | 1008.8 |
| 20260510023407 | 12 | 245 | 0.0 | 4.8 | 0.00 | 2.51 | 2.51 | 95 | 1008.9 |
| 20260510022905 | 12 | 202 | 1.6 | 1.6 | 0.00 | 2.51 | 2.51 | 95 | 1008.9 |
| 20260510022404 | 12 | 158 | 1.6 | 8.0 | 0.48 | 2.51 | 2.51 | 95 | 1008.8 |
| 20260510021903 | 12 | 153 | 4.8 | 4.8 | 0.48 | 2.51 | 2.51 | 95 | 1008.7 |
| 20260510021401 | 12 | 238 | 1.6 | 4.8 | 0.13 | 2.46 | 2.46 | 95 | 1009.0 |
| 20260510020857 | 12 | 217 | 1.6 | 1.6 | 0.00 | 2.44 | 2.44 | 95 | 1008.7 |
| 20260510020352 | 12 | 227 | 0.0 | 1.6 | 0.00 | 2.44 | 2.44 | 94 | 1008.8 |
| 20260510015848 | 12 | 227 | 1.6 | 1.6 | 0.00 | 2.44 | 2.44 | 94 | 1008.6 |
| 20260510015344 | 12 | 227 | 0.0 | 0.0 | 0.00 | 2.44 | 2.44 | 94 | 1008.6 |
| 20260510014839 | 12 | 227 | 0.0 | 1.6 | 0.00 | 2.44 | 2.44 | 93 | 1008.6 |
| 20260510014337 | 12 | 231 | 1.6 | 1.6 | 0.00 | 2.44 | 2.44 | 93 | 1008.5 |
| 20260510013833 | 12 | 125 | 1.6 | 4.8 | 0.00 | 2.44 | 2.44 | 93 | 1008.4 |
| 20260510013329 | 12 | 237 | 0.0 | 1.6 | 0.00 | 2.44 | 2.44 | 93 | 1008.6 |
| 20260510012824 | 12 | 231 | 0.0 | 4.8 | 0.00 | 2.44 | 2.44 | 93 | 1008.6 |
| 20260510012323 | 12 | 228 | 3.2 | 6.4 | 0.00 | 2.44 | 2.44 | 93 | 1008.6 |
| 20260510011819 | 12 | 134 | 3.2 | 6.4 | 0.00 | 2.44 | 2.44 | 93 | 1008.2 |
| 20260510011314 | 12 | 246 | 1.6 | 4.8 | 0.00 | 2.44 | 2.44 | 93 | 1008.3 |
| 20260510010811 | 12 | 200 | 1.6 | 8.0 | 0.00 | 2.44 | 2.44 | 93 | 1008.2 |
| 20260510010308 | 12 | 286 | 0.0 | 1.6 | 0.00 | 2.44 | 2.44 | 93 | 1008.2 |
| 20260510005805 | 12 | 218 | 0.0 | 1.6 | 0.00 | 2.44 | 2.44 | 92 | 1008.3 |
| 20260510005301 | 12 | 215 | 1.6 | 4.8 | 0.00 | 2.44 | 2.44 | 92 | 1008.2 |
| 20260510004759 | 12 | 265 | 1.6 | 6.4 | 0.00 | 2.44 | 2.44 | 92 | 1008.1 |
| 20260510004256 | 12 | 222 | 3.2 | 6.4 | 0.00 | 2.44 | 2.44 | 91 | 1008.3 |
| 20260510003754 | 12 | 263 | 6.4 | 11.3 | 0.18 | 2.44 | 2.44 | 91 | 1008.3 |
| 20260510003250 | 12 | 187 | 3.2 | 11.3 | 0.18 | 2.44 | 2.44 | 91 | 1008.1 |
| 20260510002749 | 12 | 222 | 4.8 | 4.8 | 0.30 | 2.41 | 2.41 | 92 | 1007.9 |
| 20260510002247 | 12 | 308 | 0.0 | 6.4 | 0.43 | 2.41 | 2.41 | 92 | 1008.5 |
| 20260510001743 | 12 | 269 | 4.8 | 6.4 | 0.43 | 2.36 | 2.36 | 92 | 1008.6 |
| 20260510001242 | 12 | 288 | 4.8 | 8.0 | 0.61 | 2.34 | 2.34 | 93 | 1008.5 |
| 20260510000737 | 12 | 303 | 6.4 | 11.3 | 0.79 | 2.29 | 2.29 | 92 | 1008.6 |
| 20260510000235 | 12 | 265 | 1.6 | 16.1 | 1.98 | 2.24 | 2.24 | 92 | 1008.7 |
| 20260509235731 | 12 | 275 | 3.2 | 30.6 | 2.59 | 2.13 | 2.13 | 91 | 1008.7 |
| 20260509235228 | 12 | 322 | 22.5 | 37.0 | 2.29 | 1.88 | 1.88 | 88 | 1007.9 |
| 20260509234724 | 13 | 2 | 14.5 | 30.6 | 1.55 | 1.68 | 1.68 | 85 | 1007.4 |
| 20260509234221 | 15 | 290 | 6.4 | 33.8 | 0.30 | 1.47 | 1.47 | 77 | 1007.8 |
| 20260509233719 | 18 | 358 | 12.9 | 17.7 | 0.00 | 1.42 | 1.42 | 57 | 1007.5 |
| 20260509233216 | 19 | 266 | 3.2 | 11.3 | 0.00 | 1.42 | 1.42 | 54 | 1006.4 |
| 20260509232713 | 19 | 255 | 9.7 | 12.9 | 0.00 | 1.42 | 1.42 | 52 | 1006.2 |
| 20260509232210 | 19 | 252 | 6.4 | 11.3 | 0.00 | 1.42 | 1.42 | 52 | 1006.0 |
| 20260509231706 | 19 | 221 | 11.3 | 25.7 | 0.00 | 1.42 | 1.42 | 51 | 1005.8 |
| 20260509231204 | 19 | 214 | 16.1 | 19.3 | 0.00 | 1.42 | 1.42 | 50 | 1005.8 |
| 20260509230701 | 19 | 164 | 9.7 | 17.7 | 0.00 | 1.42 | 1.42 | 50 | 1005.9 |
| 20260509230157 | 19 | 226 | 6.4 | 16.1 | 0.00 | 1.42 | 1.42 | 50 | 1006.0 |
| 20260509225653 | 19 | 222 | 6.4 | 12.9 | 0.00 | 1.42 | 1.42 | 51 | 1005.9 |
| 20260509225149 | 20 | 227 | 25.7 | 30.6 | 0.00 | 1.42 | 1.42 | 50 | 1005.8 |
| 20260509224644 | 20 | 156 | 4.8 | 6.4 | 0.00 | 1.42 | 1.42 | 52 | 1005.4 |
| 20260509224142 | 20 | 191 | 12.9 | 33.8 | 0.00 | 1.42 | 1.42 | 50 | 1005.6 |
| 20260509223638 | 20 | 217 | 4.8 | 12.9 | 0.00 | 1.42 | 1.42 | 49 | 1005.7 |
| 20260509223136 | 20 | 227 | 11.3 | 17.7 | 0.00 | 1.42 | 1.42 | 49 | 1006.0 |
| 20260509222633 | 20 | 186 | 19.3 | 24.1 | 0.00 | 1.42 | 1.42 | 47 | 1005.6 |
| 20260509222128 | 20 | 203 | 8.0 | 16.1 | 0.00 | 1.42 | 1.42 | 47 | 1005.8 |
| 20260509221624 | 20 | 231 | 14.5 | 25.7 | 0.00 | 1.42 | 1.42 | 46 | 1005.8 |
| 20260509221120 | 20 | 257 | 9.7 | 19.3 | 0.00 | 1.42 | 1.42 | 49 | 1005.7 |
| 20260509220616 | 20 | 201 | 8.0 | 25.7 | 0.00 | 1.42 | 1.42 | 48 | 1005.7 |
| 20260509220113 | 20 | 268 | 19.3 | 33.8 | 0.00 | 1.42 | 1.42 | 48 | 1006.0 |
| 20260509215608 | 20 | 217 | 4.8 | 16.1 | 0.00 | 1.42 | 1.42 | 50 | 1005.6 |
| 20260509215106 | 20 | 201 | 14.5 | 16.1 | 0.00 | 1.42 | 1.42 | 49 | 1005.7 |
| 20260509214602 | 20 | 207 | 11.3 | 25.7 | 0.00 | 1.42 | 1.42 | 48 | 1005.6 |
| 20260509214059 | 20 | 217 | 12.9 | 19.3 | 0.00 | 1.42 | 1.42 | 48 | 1005.7 |
| 20260509213555 | 20 | 159 | 14.5 | 25.7 | 0.00 | 1.42 | 1.42 | 47 | 1005.8 |
| 20260509213052 | 20 | 263 | 11.3 | 30.6 | 0.00 | 1.42 | 1.42 | 48 | 1005.9 |
| 20260509212549 | 20 | 249 | 12.9 | 22.5 | 0.00 | 1.42 | 1.42 | 46 | 1005.8 |
| 20260509212046 | 20 | 208 | 6.4 | 19.3 | 0.00 | 1.42 | 1.42 | 50 | 1006.1 |
| 20260509211542 | 20 | 275 | 16.1 | 25.7 | 0.00 | 1.42 | 1.42 | 48 | 1006.1 |
| 20260509211039 | 20 | 201 | 9.7 | 19.3 | 0.00 | 1.42 | 1.42 | 49 | 1006.2 |
| 20260509210536 | 20 | 128 | 6.4 | 22.5 | 0.00 | 1.42 | 1.42 | 49 | 1006.0 |
| 20260509210032 | 20 | 158 | 12.9 | 24.1 | 0.00 | 1.42 | 1.42 | 48 | 1006.2 |
| 20260509205526 | 21 | 206 | 17.7 | 22.5 | 0.00 | 1.42 | 1.42 | 46 | 1006.5 |
| 20260509205022 | 20 | 135 | 6.4 | 16.1 | 0.00 | 1.42 | 1.42 | 46 | 1006.3 |
| 20260509204518 | 20 | 199 | 9.7 | 19.3 | 0.00 | 1.42 | 1.42 | 52 | 1006.3 |
| 20260509204015 | 20 | 203 | 12.9 | 22.5 | 0.00 | 1.42 | 1.42 | 50 | 1006.4 |
| 20260509203510 | 19 | 241 | 16.1 | 33.8 | 0.00 | 1.42 | 1.42 | 51 | 1006.4 |
| 20260509203009 | 20 | 175 | 11.3 | 16.1 | 0.00 | 1.42 | 1.42 | 50 | 1006.5 |
| 20260509202503 | 20 | 266 | 12.9 | 25.7 | 0.00 | 1.42 | 1.42 | 50 | 1006.4 |
| 20260509201959 | 21 | 202 | 14.5 | 30.6 | 0.00 | 1.42 | 1.42 | 50 | 1006.6 |
| 20260509201454 | 20 | 187 | 6.4 | 16.1 | 0.00 | 1.42 | 1.42 | 54 | 1006.6 |
| 20260509200951 | 20 | 234 | 14.5 | 19.3 | 0.00 | 1.42 | 1.42 | 50 | 1006.7 |
| 20260509200446 | 20 | 250 | 9.7 | 16.1 | 0.00 | 1.42 | 1.42 | 52 | 1006.7 |
| 20260509195943 | 20 | 102 | 11.3 | 16.1 | 0.00 | 1.42 | 1.42 | 53 | 1006.8 |
| 20260509195433 | 20 | 201 | 8.0 | 8.0 | 0.00 | 1.42 | 1.42 | 51 | 1006.9 |
| 20260509194932 | 20 | 181 | 8.0 | 19.3 | 0.00 | 1.42 | 1.42 | 53 | 1007.1 |
| 20260509194428 | 19 | 215 | 8.0 | 25.7 | 0.00 | 1.42 | 1.42 | 53 | 1007.2 |
| 20260509193926 | 19 | 227 | 11.3 | 24.1 | 0.00 | 1.42 | 1.42 | 53 | 1007.1 |
| 20260509193425 | 19 | 213 | 6.4 | 25.7 | 0.00 | 1.42 | 1.42 | 53 | 1007.4 |
| 20260509192921 | 19 | 219 | 25.7 | 30.6 | 0.00 | 1.42 | 1.42 | 52 | 1007.7 |
| 20260509192418 | 19 | 242 | 19.3 | 24.1 | 0.00 | 1.42 | 1.42 | 51 | 1007.7 |
| 20260509191913 | 20 | 235 | 12.9 | 29.0 | 0.00 | 1.42 | 1.42 | 50 | 1007.5 |
| 20260509191409 | 19 | 256 | 8.0 | 12.9 | 0.00 | 1.42 | 1.42 | 54 | 1007.6 |
| 20260509190905 | 18 | 228 | 11.3 | 25.7 | 0.00 | 1.42 | 1.42 | 56 | 1007.6 |
| 20260509190402 | 19 | 178 | 14.5 | 19.3 | 0.00 | 1.42 | 1.42 | 51 | 1007.5 |
| 20260509185900 | 20 | 250 | 11.3 | 24.1 | 0.00 | 1.42 | 1.42 | 54 | 1007.7 |
| 20260509185356 | 19 | 265 | 12.9 | 19.3 | 0.00 | 1.42 | 1.42 | 53 | 1007.8 |
| 20260509184853 | 18 | 240 | 6.4 | 12.9 | 0.00 | 1.42 | 1.42 | 54 | 1007.8 |
| 20260509184350 | 18 | 233 | 17.7 | 29.0 | 0.00 | 1.42 | 1.42 | 53 | 1007.8 |
| 20260509183847 | 19 | 229 | 12.9 | 16.1 | 0.00 | 1.42 | 1.42 | 53 | 1007.7 |
| 20260509183342 | 18 | 226 | 22.5 | 24.1 | 0.00 | 1.42 | 1.42 | 56 | 1007.8 |
| 20260509182838 | 18 | 233 | 8.0 | 25.7 | 0.00 | 1.42 | 1.42 | 55 | 1008.0 |
| 20260509182335 | 18 | 210 | 11.3 | 24.1 | 0.00 | 1.42 | 1.42 | 55 | 1008.0 |
| 20260509181833 | 18 | 188 | 11.3 | 25.7 | 0.00 | 1.42 | 1.42 | 58 | 1008.0 |
| 20260509181330 | 17 | 276 | 6.4 | 17.7 | 0.00 | 1.42 | 1.42 | 61 | 1007.9 |
| 20260509180827 | 17 | 234 | 14.5 | 24.1 | 0.00 | 1.42 | 1.42 | 58 | 1008.2 |
| 20260509180323 | 17 | 242 | 11.3 | 24.1 | 0.00 | 1.42 | 1.42 | 58 | 1008.1 |
| 20260509175820 | 17 | 232 | 8.0 | 22.5 | 0.00 | 1.42 | 1.42 | 59 | 1008.0 |
| 20260509175316 | 18 | 124 | 9.7 | 17.7 | 0.00 | 1.42 | 1.42 | 59 | 1008.0 |
| 20260509174812 | 18 | 243 | 8.0 | 16.1 | 0.00 | 1.42 | 1.42 | 61 | 1008.1 |
| 20260509174308 | 17 | 211 | 4.8 | 11.3 | 0.00 | 1.42 | 1.42 | 63 | 1008.1 |
| 20260509173804 | 17 | 273 | 14.5 | 22.5 | 0.00 | 1.42 | 1.42 | 60 | 1007.8 |
| 20260509173300 | 17 | 239 | 9.7 | 17.7 | 0.00 | 1.42 | 1.42 | 62 | 1007.8 |
| 20260509172756 | 17 | 200 | 14.5 | 17.7 | 0.00 | 1.42 | 1.42 | 61 | 1007.8 |
| 20260509172253 | 17 | 185 | 6.4 | 12.9 | 0.00 | 1.42 | 1.42 | 63 | 1007.9 |
| 20260509171748 | 17 | 228 | 6.4 | 17.7 | 0.00 | 1.42 | 1.42 | 62 | 1007.9 |
| 20260509171245 | 17 | 214 | 4.8 | 8.0 | 0.00 | 1.42 | 1.42 | 65 | 1008.3 |
| 20260509170741 | 17 | 253 | 6.4 | 12.9 | 0.00 | 1.42 | 1.42 | 65 | 1008.1 |
| 20260509170237 | 17 | 194 | 4.8 | 11.3 | 0.00 | 1.42 | 1.42 | 65 | 1008.1 |
| 20260509165736 | 17 | 234 | 9.7 | 12.9 | 0.00 | 1.42 | 1.42 | 64 | 1008.2 |
| 20260509165231 | 17 | 230 | 6.4 | 16.1 | 0.00 | 1.42 | 1.42 | 63 | 1008.2 |
| 20260509164727 | 17 | 139 | 11.3 | 19.3 | 0.00 | 1.42 | 1.42 | 64 | 1008.4 |
| 20260509164223 | 16 | 266 | 3.2 | 8.0 | 0.00 | 1.42 | 1.42 | 66 | 1008.4 |
| 20260509163721 | 16 | 243 | 3.2 | 12.9 | 0.00 | 1.42 | 1.42 | 67 | 1008.2 |
| 20260509163217 | 16 | 237 | 12.9 | 12.9 | 0.00 | 1.42 | 1.42 | 67 | 1008.4 |
| 20260509162715 | 16 | 142 | 8.0 | 19.3 | 0.00 | 1.42 | 1.42 | 70 | 1008.4 |
| 20260509162210 | 15 | 235 | 4.8 | 16.1 | 0.00 | 1.42 | 1.42 | 73 | 1008.3 |
| 20260509161706 | 16 | 214 | 17.7 | 19.3 | 0.00 | 1.42 | 1.42 | 71 | 1008.5 |
| 20260509161202 | 15 | 238 | 4.8 | 11.3 | 0.00 | 1.42 | 1.42 | 77 | 1008.4 |
| 20260509160657 | 15 | 210 | 17.7 | 22.5 | 0.00 | 1.42 | 1.42 | 73 | 1008.4 |
| 20260509160153 | 15 | 192 | 11.3 | 19.3 | 0.00 | 1.42 | 1.42 | 74 | 1008.5 |
| 20260509155649 | 15 | 261 | 6.4 | 12.9 | 0.00 | 1.42 | 1.42 | 77 | 1008.5 |
| 20260509155146 | 15 | 263 | 12.9 | 17.7 | 0.00 | 1.42 | 1.42 | 76 | 1008.4 |
| 20260509154641 | 14 | 271 | 3.2 | 12.9 | 0.00 | 1.42 | 1.42 | 80 | 1008.5 |
| 20260509154139 | 14 | 262 | 3.2 | 6.4 | 0.00 | 1.42 | 1.42 | 80 | 1008.4 |
| 20260509153636 | 14 | 222 | 4.8 | 17.7 | 0.00 | 1.42 | 1.42 | 80 | 1008.4 |
| 20260509153132 | 14 | 160 | 4.8 | 12.9 | 0.00 | 1.42 | 1.42 | 81 | 1008.3 |
| 20260509152628 | 14 | 262 | 6.4 | 8.0 | 0.00 | 1.42 | 1.42 | 81 | 1008.5 |
| 20260509152126 | 14 | 251 | 8.0 | 17.7 | 0.00 | 1.42 | 1.42 | 81 | 1008.4 |
| 20260509151622 | 14 | 216 | 4.8 | 8.0 | 0.00 | 1.42 | 1.42 | 83 | 1008.4 |
| 20260509151120 | 14 | 221 | 14.5 | 16.1 | 0.00 | 1.42 | 1.42 | 81 | 1008.4 |
| 20260509150618 | 13 | 250 | 4.8 | 6.4 | 0.00 | 1.42 | 1.42 | 86 | 1008.4 |
| 20260509150116 | 13 | 268 | 8.0 | 11.3 | 0.00 | 1.42 | 1.42 | 87 | 1008.3 |
| 20260509145611 | 13 | 236 | 4.8 | 11.3 | 0.00 | 1.42 | 1.42 | 88 | 1008.2 |
| 20260509145106 | 13 | 207 | 3.2 | 4.8 | 0.00 | 1.42 | 1.42 | 90 | 1008.4 |
| 20260509144604 | 12 | 259 | 8.0 | 11.3 | 0.00 | 1.42 | 1.42 | 90 | 1008.5 |
| 20260509144100 | 12 | 221 | 3.2 | 12.9 | 0.00 | 1.42 | 1.42 | 91 | 1008.6 |
| 20260509143558 | 12 | 152 | 1.6 | 4.8 | 0.00 | 1.42 | 1.42 | 93 | 1008.4 |
| 20260509143055 | 12 | 220 | 3.2 | 8.0 | 0.00 | 1.42 | 1.42 | 92 | 1008.3 |
| 20260509142550 | 12 | 185 | 4.8 | 11.3 | 0.00 | 1.42 | 1.42 | 92 | 1008.4 |
| 20260509142047 | 12 | 202 | 3.2 | 8.0 | 0.00 | 1.42 | 1.42 | 92 | 1008.3 |
| 20260509141543 | 12 | 222 | 3.2 | 4.8 | 0.00 | 1.42 | 1.42 | 92 | 1008.2 |
| 20260509141040 | 12 | 258 | 3.2 | 11.3 | 0.00 | 1.42 | 1.42 | 92 | 1008.3 |
| 20260509140537 | 12 | 220 | 6.4 | 6.4 | 0.00 | 1.42 | 1.42 | 92 | 1008.3 |
| 20260509140035 | 12 | 235 | 4.8 | 12.9 | 0.00 | 1.42 | 1.42 | 93 | 1008.3 |
| 20260509135531 | 12 | 217 | 4.8 | 16.1 | 0.00 | 1.42 | 1.42 | 93 | 1008.5 |
| 20260509135029 | 12 | 250 | 4.8 | 12.9 | 0.00 | 1.42 | 1.42 | 94 | 1008.3 |
| 20260509134526 | 12 | 239 | 6.4 | 8.0 | 0.00 | 1.42 | 1.42 | 94 | 1008.3 |
| 20260509134024 | 11 | 156 | 4.8 | 6.4 | 0.00 | 1.42 | 1.42 | 95 | 1008.3 |
| 20260509133520 | 11 | 163 | 3.2 | 8.0 | 0.00 | 1.42 | 1.42 | 94 | 1008.4 |
| 20260509133018 | 11 | 216 | 4.8 | 12.9 | 0.00 | 1.42 | 1.42 | 95 | 1008.3 |
| 20260509132516 | 11 | 226 | 4.8 | 6.4 | 0.00 | 1.42 | 1.42 | 95 | 1008.3 |
| 20260509132014 | 11 | 186 | 4.8 | 6.4 | 0.00 | 1.42 | 1.42 | 95 | 1008.4 |
| 20260509131510 | 11 | 209 | 9.7 | 11.3 | 0.00 | 1.42 | 1.42 | 95 | 1008.4 |
| 20260509131007 | 11 | 220 | 9.7 | 11.3 | 0.00 | 1.42 | 1.42 | 95 | 1008.5 |
| 20260509130502 | 11 | 212 | 1.6 | 6.4 | 0.00 | 1.42 | 1.42 | 95 | 1008.6 |
| 20260509125959 | 11 | 207 | 6.4 | 11.3 | 0.00 | 1.42 | 1.42 | 95 | 1008.5 |
| 20260509125456 | 11 | 210 | 3.2 | 4.8 | 0.00 | 1.42 | 1.42 | 95 | 1008.8 |
| 20260509124951 | 11 | 221 | 4.8 | 8.0 | 0.00 | 1.42 | 1.42 | 95 | 1008.8 |
| 20260509124449 | 11 | 208 | 3.2 | 4.8 | 0.00 | 1.42 | 1.42 | 96 | 1008.9 |
| 20260509123946 | 11 | 247 | 4.8 | 8.0 | 0.00 | 1.42 | 1.42 | 96 | 1008.6 |
| 20260509123444 | 11 | 228 | 1.6 | 1.6 | 0.00 | 1.42 | 1.42 | 96 | 1008.7 |
| 20260509122939 | 11 | 223 | 1.6 | 1.6 | 0.00 | 1.42 | 1.42 | 96 | 1008.8 |
| 20260509122437 | 11 | 250 | 4.8 | 6.4 | 0.13 | 1.42 | 1.42 | 96 | 1008.8 |
| 20260509121933 | 11 | 196 | 1.6 | 1.6 | 0.13 | 1.42 | 1.42 | 96 | 1008.8 |
| 20260509121430 | 10 | 227 | 1.6 | 4.8 | 0.00 | 1.40 | 1.40 | 96 | 1008.9 |
| 20260509120928 | 10 | 186 | 1.6 | 4.8 | 0.00 | 1.40 | 1.40 | 96 | 1008.7 |
| 20260509120426 | 10 | 136 | 3.2 | 6.4 | 0.00 | 1.40 | 1.40 | 96 | 1008.8 |
| 20260509115924 | 10 | 204 | 3.2 | 4.8 | 0.00 | 1.40 | 1.40 | 96 | 1008.8 |
| 20260509115421 | 10 | 240 | 3.2 | 1.6 | 0.00 | 1.40 | 1.40 | 96 | 1008.8 |
| 20260509114918 | 10 | 240 | 0.0 | 1.6 | 0.00 | 1.40 | 1.40 | 96 | 1008.8 |
| 20260509114417 | 10 | 220 | 1.6 | 4.8 | 0.00 | 1.40 | 1.40 | 96 | 1008.8 |
| 20260509113916 | 10 | 230 | 0.0 | 1.6 | 0.00 | 1.40 | 1.40 | 96 | 1008.8 |
| 20260509113413 | 10 | 206 | 3.2 | 8.0 | 0.00 | 1.40 | 1.40 | 96 | 1008.9 |
| 20260509112909 | 10 | 213 | 4.8 | 4.8 | 0.18 | 1.40 | 1.40 | 96 | 1008.9 |
| 20260509112407 | 10 | 217 | 4.8 | 11.3 | 0.18 | 1.40 | 1.40 | 96 | 1008.6 |
| 20260509111904 | 10 | 226 | 3.2 | 4.8 | 0.00 | 1.37 | 1.37 | 96 | 1008.8 |
| 20260509111400 | 10 | 208 | 9.7 | 11.3 | 0.13 | 1.37 | 1.37 | 96 | 1008.5 |
| 20260509110858 | 10 | 218 | 3.2 | 8.0 | 0.00 | 1.35 | 1.35 | 96 | 1008.5 |
| 20260509110354 | 10 | 240 | 3.2 | 4.8 | 0.00 | 1.35 | 1.35 | 96 | 1008.6 |
| 20260509105852 | 10 | 226 | 4.8 | 8.0 | 0.00 | 1.35 | 1.35 | 96 | 1008.6 |
| 20260509105350 | 10 | 213 | 4.8 | 6.4 | 0.00 | 1.35 | 1.35 | 96 | 1008.4 |
| 20260509104847 | 10 | 211 | 1.6 | 4.8 | 0.00 | 1.35 | 1.35 | 96 | 1008.4 |
| 20260509104343 | 10 | 233 | 1.6 | 1.6 | 0.00 | 1.35 | 1.35 | 96 | 1008.6 |
| 20260509103841 | 10 | 229 | 4.8 | 8.0 | 0.00 | 1.35 | 1.35 | 96 | 1008.5 |
| 20260509103338 | 10 | 219 | 1.6 | 4.8 | 0.00 | 1.35 | 1.35 | 96 | 1008.3 |
| 20260509102837 | 10 | 191 | 1.6 | 1.6 | 0.18 | 1.35 | 1.35 | 96 | 1008.2 |
| 20260509102334 | 10 | 227 | 3.2 | 8.0 | 0.18 | 1.35 | 1.35 | 96 | 1008.6 |
| 20260509101829 | 10 | 157 | 3.2 | 4.8 | 0.00 | 1.32 | 1.32 | 96 | 1008.6 |
| 20260509101326 | 10 | 194 | 1.6 | 4.8 | 0.00 | 1.32 | 1.32 | 96 | 1008.5 |
| 20260509100824 | 10 | 212 | 1.6 | 6.4 | 0.00 | 1.32 | 1.32 | 96 | 1008.6 |
| 20260509100321 | 10 | 235 | 3.2 | 4.8 | 0.00 | 1.32 | 1.32 | 96 | 1008.6 |
| 20260509095817 | 10 | 143 | 1.6 | 4.8 | 0.13 | 1.32 | 1.32 | 96 | 1008.6 |
| 20260509095315 | 10 | 165 | 3.2 | 4.8 | 0.13 | 1.32 | 1.32 | 96 | 1008.6 |
| 20260509094812 | 10 | 160 | 3.2 | 4.8 | 0.00 | 1.30 | 1.30 | 96 | 1008.7 |
| 20260509094308 | 10 | 176 | 1.6 | 4.8 | 0.00 | 1.30 | 1.30 | 96 | 1008.8 |
| 20260509093806 | 10 | 232 | 1.6 | 4.8 | 0.00 | 1.30 | 1.30 | 96 | 1008.8 |
| 20260509093303 | 10 | 188 | 1.6 | 4.8 | 0.00 | 1.30 | 1.30 | 96 | 1008.8 |
| 20260509092802 | 10 | 217 | 3.2 | 6.4 | 0.18 | 1.30 | 1.30 | 96 | 1008.9 |
| 20260509092259 | 10 | 186 | 3.2 | 1.6 | 0.18 | 1.30 | 1.30 | 96 | 1008.7 |
| 20260509091757 | 10 | 227 | 3.2 | 6.4 | 0.00 | 1.27 | 1.27 | 96 | 1009.0 |
| 20260509091253 | 10 | 146 | 1.6 | 6.4 | 0.00 | 1.27 | 1.27 | 96 | 1009.0 |
| 20260509090751 | 10 | 126 | 1.6 | 6.4 | 0.00 | 1.27 | 1.27 | 97 | 1009.0 |
| 20260509090248 | 10 | 231 | 3.2 | 6.4 | 0.13 | 1.27 | 1.27 | 97 | 1008.9 |
| 20260509085745 | 10 | 143 | 0.0 | 6.4 | 0.48 | 1.27 | 1.27 | 97 | 1009.0 |
| 20260509085243 | 10 | 233 | 3.2 | 4.8 | 0.66 | 1.24 | 1.24 | 97 | 1009.1 |
| 20260509084739 | 10 | 8 | 1.6 | 1.6 | 0.43 | 1.19 | 1.19 | 97 | 1009.3 |
| 20260509084236 | 10 | 296 | 0.0 | 4.8 | 0.13 | 1.14 | 1.14 | 97 | 1009.2 |
| 20260509083734 | 10 | 106 | 1.6 | 4.8 | 0.00 | 1.12 | 1.12 | 96 | 1009.2 |
| 20260509083230 | 10 | 239 | 1.6 | 1.6 | 0.18 | 1.12 | 1.12 | 96 | 1009.3 |
| 20260509082727 | 10 | 217 | 0.0 | 0.0 | 0.18 | 1.12 | 1.12 | 96 | 1009.2 |
| 20260509082224 | 10 | 217 | 1.6 | 1.6 | 0.30 | 1.09 | 1.09 | 96 | 1009.1 |
| 20260509081720 | 10 | 230 | 0.0 | 1.6 | 0.30 | 1.07 | 1.07 | 96 | 1009.3 |
| 20260509081218 | 10 | 230 | 0.0 | 1.6 | 0.30 | 1.04 | 1.04 | 96 | 1009.4 |
| 20260509080716 | 10 | 253 | 3.2 | 4.8 | 0.48 | 1.02 | 1.02 | 96 | 1009.5 |
| 20260509080213 | 10 | 154 | 1.6 | 4.8 | 0.61 | 0.99 | 0.99 | 96 | 1009.3 |
| 20260509075711 | 10 | 196 | 1.6 | 6.4 | 0.48 | 0.94 | 0.94 | 96 | 1009.3 |
| 20260509075209 | 10 | 175 | 3.2 | 6.4 | 0.13 | 0.86 | 0.86 | 96 | 1009.2 |
| 20260509074705 | 10 | 138 | 4.8 | 8.0 | 0.30 | 0.84 | 0.84 | 96 | 1009.3 |
| 20260509074203 | 10 | 216 | 6.4 | 8.0 | 0.48 | 0.84 | 0.84 | 96 | 1009.3 |
| 20260509073659 | 10 | 188 | 4.8 | 6.4 | 0.48 | 0.79 | 0.79 | 96 | 1009.3 |
| 20260509073155 | 10 | 202 | 4.8 | 11.3 | 0.30 | 0.76 | 0.76 | 96 | 1009.5 |
| 20260509072652 | 10 | 252 | 3.2 | 6.4 | 0.13 | 0.71 | 0.71 | 96 | 1009.5 |
| 20260509072149 | 10 | 217 | 3.2 | 8.0 | 0.13 | 0.71 | 0.71 | 96 | 1009.5 |
| 20260509071645 | 10 | 218 | 4.8 | 8.0 | 0.00 | 0.69 | 0.69 | 96 | 1009.4 |
| 20260509071143 | 10 | 201 | 3.2 | 12.9 | 0.18 | 0.69 | 0.69 | 96 | 1009.4 |
| 20260509070640 | 10 | 119 | 4.8 | 6.4 | 0.48 | 0.69 | 0.69 | 96 | 1009.6 |
| 20260509070136 | 10 | 225 | 4.8 | 6.4 | 0.48 | 0.66 | 0.66 | 96 | 1009.4 |
| 20260509065632 | 10 | 165 | 11.3 | 11.3 | 0.30 | 0.61 | 0.61 | 96 | 1009.4 |
| 20260509065128 | 10 | 155 | 6.4 | 8.0 | 0.30 | 0.58 | 0.58 | 96 | 1009.5 |
| 20260509064626 | 10 | 166 | 3.2 | 4.8 | 0.18 | 0.56 | 0.56 | 96 | 1009.7 |
| 20260509064124 | 10 | 147 | 3.2 | 6.4 | 0.30 | 0.56 | 0.56 | 96 | 1009.6 |
| 20260509063620 | 10 | 155 | 1.6 | 8.0 | 0.13 | 0.53 | 0.53 | 96 | 1009.6 |
| 20260509063117 | 10 | 155 | 3.2 | 4.8 | 0.18 | 0.51 | 0.51 | 96 | 1009.6 |
| 20260509062614 | 10 | 159 | 1.6 | 4.8 | 0.30 | 0.51 | 0.51 | 96 | 1009.8 |
| 20260509062111 | 10 | 215 | 1.6 | 1.6 | 0.13 | 0.48 | 0.48 | 96 | 1010.0 |
| 20260509061608 | 10 | 238 | 3.2 | 4.8 | 0.00 | 0.46 | 0.46 | 96 | 1010.0 |
| 20260509061105 | 10 | 144 | 1.6 | 4.8 | 0.00 | 0.46 | 0.46 | 96 | 1009.9 |
| 20260509060603 | 10 | 150 | 0.0 | 1.6 | 0.18 | 0.46 | 0.46 | 96 | 1010.1 |
| 20260509060058 | 10 | 151 | 0.0 | 4.8 | 0.18 | 0.46 | 0.46 | 96 | 1010.1 |
| 20260509055554 | 10 | 148 | 1.6 | 1.6 | 0.13 | 0.43 | 0.43 | 96 | 1010.3 |